createdAt,value
2019-03-19T00:00:24.573Z,99.90
2019-03-19T00:02:53.510Z,99.90
2019-03-19T00:08:50.660Z,99.90
2019-03-19T00:11:19.327Z,99.90
2019-03-19T00:13:48.474Z,99.90
2019-03-19T00:16:17.372Z,99.90
2019-03-19T00:18:46.783Z,99.90
2019-03-19T00:21:15.670Z,99.90
2019-03-19T00:23:45.952Z,99.90
2019-03-19T00:26:14.811Z,99.90
2019-03-19T00:28:43.627Z,99.90
2019-03-19T00:31:13.126Z,99.90
2019-03-19T00:33:41.938Z,99.90
2019-03-19T00:38:58.555Z,99.90
2019-03-19T00:41:29.549Z,99.90
2019-03-19T00:43:58.217Z,99.90
2019-03-19T00:46:29.540Z,99.90
2019-03-19T00:49:07.024Z,99.90
2019-03-19T00:55:09.436Z,99.90
2019-03-19T00:57:42.366Z,99.90
2019-03-19T01:03:07.050Z,99.90
2019-03-19T01:05:36.138Z,99.90
2019-03-19T01:08:13.134Z,99.90
2019-03-19T01:10:52.060Z,99.90
2019-03-19T01:13:20.937Z,99.90
2019-03-19T01:22:11.022Z,99.90
2019-03-19T01:24:43.780Z,99.90
2019-03-19T01:27:14.135Z,99.90
2019-03-19T01:29:42.841Z,99.90
2019-03-19T01:32:11.489Z,99.90
2019-03-19T01:34:40.106Z,99.90
2019-03-19T01:37:11.782Z,99.90
2019-03-19T01:39:40.506Z,99.90
2019-03-19T01:42:09.125Z,99.90
2019-03-19T01:44:37.993Z,99.90
2019-03-19T02:12:42.031Z,99.90
2019-03-19T02:15:31.644Z,99.90
2019-03-19T02:18:19.417Z,99.90
2019-03-19T02:21:07.171Z,99.90
2019-03-19T02:26:48.394Z,99.90
2019-03-19T02:29:36.178Z,99.90
2019-03-19T02:32:23.939Z,99.90
2019-03-19T02:35:04.754Z,99.90
2019-03-19T02:37:45.500Z,99.90
2019-03-19T02:40:53.995Z,99.90
2019-03-19T02:43:41.794Z,99.90
2019-03-19T02:46:10.292Z,99.90
2019-03-19T02:48:50.519Z,99.90
2019-03-19T02:51:31.631Z,99.90
2019-03-19T02:54:12.462Z,99.90
2019-03-19T02:56:53.578Z,99.90
2019-03-19T02:59:34.163Z,99.90
2019-03-19T03:02:15.010Z,99.90
2019-03-19T03:04:55.668Z,99.90
2019-03-19T03:07:36.247Z,99.90
2019-03-19T03:10:17.000Z,99.90
2019-03-19T03:12:58.228Z,99.90
2019-03-19T03:15:39.012Z,99.90
2019-03-19T03:18:19.767Z,99.90
2019-03-19T03:20:48.224Z,99.90
2019-03-19T03:23:36.016Z,99.90
2019-03-19T03:29:11.360Z,99.90
2019-03-19T03:31:59.267Z,99.90
2019-03-19T03:34:47.149Z,99.90
2019-03-19T03:37:34.917Z,99.90
2019-03-19T03:40:22.700Z,99.90
2019-03-19T03:43:01.471Z,99.90
2019-03-19T03:45:49.592Z,99.90
2019-03-19T03:48:37.517Z,99.90
2019-03-19T03:51:25.665Z,99.90
2019-03-19T03:54:13.429Z,99.90
2019-03-19T03:57:02.857Z,99.90
2019-03-19T04:02:20.035Z,99.90
2019-03-19T04:05:07.857Z,99.90
2019-03-19T04:07:55.653Z,99.90
2019-03-19T04:10:43.450Z,99.90
2019-03-19T04:13:31.245Z,99.90
2019-03-19T04:16:19.010Z,99.90
2019-03-19T04:19:07.107Z,99.90
2019-03-19T04:21:54.869Z,99.90
2019-03-19T04:24:42.673Z,99.90
2019-03-19T04:27:16.442Z,99.90
2019-03-19T04:30:00.627Z,99.90
2019-03-19T04:32:48.628Z,99.90
2019-03-19T04:35:36.427Z,99.90
2019-03-19T04:38:24.184Z,99.90
2019-03-19T04:41:12.036Z,99.90
2019-03-19T04:43:59.830Z,99.90
2019-03-19T04:46:47.590Z,99.90
2019-03-19T04:49:16.065Z,99.90
2019-03-19T04:52:03.955Z,99.90
2019-03-19T04:54:32.378Z,99.90
2019-03-19T04:57:26.848Z,99.90
2019-03-19T05:00:29.509Z,99.90
2019-03-19T05:03:17.360Z,99.90
2019-03-19T05:06:05.173Z,99.90
2019-03-19T05:08:52.939Z,99.90
2019-03-19T05:11:40.748Z,99.90
2019-03-19T05:14:28.508Z,99.90
2019-03-19T05:17:16.309Z,99.90
2019-03-19T05:19:44.736Z,99.90
2019-03-19T05:22:32.532Z,99.90
2019-03-19T05:25:20.331Z,99.90
2019-03-19T05:27:48.905Z,99.90
2019-03-19T05:30:36.726Z,99.90
2019-03-19T05:33:24.516Z,99.90
2019-03-19T05:36:12.273Z,99.90
2019-03-19T05:39:00.087Z,99.90
2019-03-19T05:41:47.848Z,99.90
2019-03-19T05:44:35.765Z,99.90
2019-03-19T05:47:23.588Z,99.90
2019-03-19T05:50:12.234Z,99.90
2019-03-19T05:53:00.384Z,99.90
2019-03-19T05:55:48.144Z,99.90
2019-03-19T05:58:36.004Z,99.90
2019-03-19T06:01:04.587Z,99.90
2019-03-19T06:03:52.493Z,99.90
2019-03-19T06:06:40.331Z,99.90
2019-03-19T06:09:28.117Z,99.90
2019-03-19T06:12:15.886Z,99.90
2019-03-19T06:14:56.289Z,99.90
2019-03-19T06:17:37.145Z,99.90
2019-03-19T06:20:17.877Z,99.90
2019-03-19T06:22:58.464Z,99.90
2019-03-19T06:25:38.957Z,99.90
2019-03-19T06:28:19.745Z,99.90
2019-03-19T06:31:00.460Z,99.90
2019-03-19T06:33:41.272Z,99.90
2019-03-19T06:36:22.220Z,99.90
2019-03-19T06:39:04.598Z,99.90
2019-03-19T06:41:45.028Z,99.90
2019-03-19T06:44:25.945Z,99.90
2019-03-19T06:47:06.747Z,99.90
2019-03-19T06:49:47.255Z,99.90
2019-03-19T06:52:28.214Z,99.90
2019-03-19T06:55:09.073Z,99.90
2019-03-19T06:57:49.834Z,99.90
2019-03-19T07:00:30.744Z,99.90
2019-03-19T07:03:19.496Z,99.90
2019-03-19T07:05:50.508Z,99.90
2019-03-19T07:12:01.565Z,99.90
2019-03-19T07:15:09.150Z,99.90
2019-03-19T07:17:57.006Z,99.90
2019-03-19T07:20:45.022Z,99.90
2019-03-19T07:23:32.808Z,99.90
2019-03-19T07:26:20.661Z,99.90
2019-03-19T07:29:08.697Z,99.90
2019-03-19T07:31:56.492Z,99.90
2019-03-19T07:34:44.249Z,99.90
2019-03-19T07:37:32.037Z,99.90
2019-03-19T07:40:19.900Z,99.90
2019-03-19T07:43:07.694Z,99.90
2019-03-19T07:45:55.485Z,99.90
2019-03-19T07:48:43.346Z,99.90
2019-03-19T07:51:31.131Z,99.90
2019-03-19T07:54:11.934Z,99.90
2019-03-19T07:56:52.137Z,99.90
2019-03-19T07:59:32.792Z,99.90
2019-03-19T08:02:13.904Z,99.90
2019-03-19T08:04:54.478Z,99.90
2019-03-19T08:07:35.214Z,99.90
2019-03-19T08:10:16.116Z,99.90
2019-03-19T08:12:57.049Z,99.90
2019-03-19T08:15:38.088Z,99.90
2019-03-19T08:18:06.549Z,99.90
2019-03-19T08:20:54.313Z,99.90
2019-03-19T08:23:42.113Z,99.90
2019-03-19T08:26:29.932Z,99.90
2019-03-19T08:32:11.712Z,99.90
2019-03-19T08:34:42.354Z,99.90
2019-03-19T08:37:10.904Z,99.90
2019-03-19T08:39:39.643Z,99.90
2019-03-19T08:42:08.279Z,99.90
2019-03-19T08:44:40.085Z,99.90
2019-03-19T08:49:59.058Z,99.90
2019-03-19T08:56:01.940Z,99.90
2019-03-19T08:58:32.596Z,99.90
2019-03-19T09:04:32.887Z,99.90
2019-03-19T09:07:03.330Z,99.90
2019-03-19T09:09:31.967Z,99.90
2019-03-19T09:21:38.143Z,99.90
2019-03-19T09:43:28.866Z,99.90
2019-03-19T09:49:26.323Z,99.90
2019-03-19T09:55:07.327Z,99.90
2019-03-19T09:57:38.986Z,99.90
2019-03-19T10:00:17.575Z,99.90
2019-03-19T10:02:47.108Z,99.90
2019-03-19T10:05:15.878Z,99.90
2019-03-19T10:07:44.608Z,99.90
2019-03-19T10:13:41.610Z,98.20
2019-03-19T10:16:10.367Z,98.90
2019-03-19T10:18:39.121Z,99.90
2019-03-19T10:25:20.860Z,99.90
2019-03-19T10:27:45.258Z,99.90
2019-03-19T10:30:21.644Z,99.40
2019-03-19T10:32:50.446Z,99.20
2019-03-19T10:35:19.813Z,98.20
2019-03-19T10:37:48.552Z,99.20
2019-03-19T10:40:25.189Z,97.30
2019-03-19T10:42:55.817Z,97.30
2019-03-19T10:45:26.223Z,99.90
2019-03-19T10:47:54.927Z,99.90
2019-03-19T10:50:27.496Z,98.70
2019-03-19T10:52:56.223Z,96.90
2019-03-19T10:55:24.945Z,96.40
2019-03-19T11:01:22.157Z,95.90
2019-03-19T11:03:50.656Z,94.10
2019-03-19T11:06:19.459Z,91.20
2019-03-19T11:08:48.172Z,90.60
2019-03-19T11:11:16.811Z,85.70
2019-03-19T11:13:45.399Z,84.30
2019-03-19T11:16:14.106Z,84.20
2019-03-19T11:18:42.673Z,80.50
2019-03-19T11:21:15.507Z,79.20
2019-03-19T11:23:52.077Z,76.40
2019-03-19T11:26:21.169Z,72.30
2019-03-19T11:28:49.948Z,70.60
2019-03-19T11:31:18.680Z,70.80
2019-03-19T11:33:47.788Z,72.90
2019-03-19T11:36:16.737Z,72.50
2019-03-19T11:38:46.759Z,70.30
2019-03-19T11:41:15.385Z,70.60
2019-03-19T11:43:44.096Z,68.80
2019-03-19T11:46:14.970Z,67.60
2019-03-19T11:48:43.623Z,65.80
2019-03-19T11:51:12.319Z,66.80
2019-03-19T11:53:40.948Z,65.80
2019-03-19T11:56:09.995Z,65.90
2019-03-19T11:58:38.797Z,63.70
2019-03-19T12:01:07.501Z,63.70
2019-03-19T12:03:37.231Z,63.70
2019-03-19T12:06:06.007Z,64.30
2019-03-19T12:08:34.892Z,64.70
2019-03-19T12:11:04.918Z,64.50
2019-03-19T12:13:33.555Z,64.50
2019-03-19T12:16:02.240Z,61.00
2019-03-19T12:18:30.917Z,62.10
2019-03-19T12:20:59.534Z,60.80
2019-03-19T12:23:28.043Z,62.50
2019-03-19T12:25:56.564Z,61.70
2019-03-19T12:32:06.191Z,59.30
2019-03-19T12:34:34.835Z,62.30
2019-03-19T12:37:03.556Z,61.10
2019-03-19T12:39:32.125Z,58.50
2019-03-19T12:42:00.876Z,58.40
2019-03-19T12:44:30.885Z,59.00
2019-03-19T12:47:00.750Z,56.40
2019-03-19T12:49:29.271Z,57.20
2019-03-19T12:51:59.283Z,56.90
2019-03-19T12:54:27.802Z,57.40
2019-03-19T12:56:56.295Z,56.30
2019-03-19T12:59:24.851Z,57.60
2019-03-19T13:01:53.708Z,58.50
2019-03-19T13:04:22.288Z,55.50
2019-03-19T13:06:50.856Z,55.00
2019-03-19T13:09:19.451Z,54.70
2019-03-19T13:11:47.954Z,54.60
2019-03-19T13:14:16.536Z,54.20
2019-03-19T13:16:45.044Z,53.30
2019-03-19T13:19:13.670Z,50.80
2019-03-19T13:21:42.245Z,50.10
2019-03-19T13:24:10.983Z,49.50
2019-03-19T13:30:14.283Z,50.20
2019-03-19T13:32:42.781Z,51.40
2019-03-19T13:35:11.524Z,51.10
2019-03-19T13:37:40.171Z,50.00
2019-03-19T13:40:11.760Z,49.50
2019-03-19T13:42:40.326Z,51.50
2019-03-19T13:45:23.726Z,50.40
2019-03-19T13:47:52.375Z,50.70
2019-03-19T13:50:21.805Z,50.70
2019-03-19T13:52:50.369Z,50.70
2019-03-19T13:55:22.589Z,51.00
2019-03-19T13:57:51.490Z,51.40
2019-03-19T14:00:20.219Z,50.90
2019-03-19T14:02:48.747Z,53.00
2019-03-19T14:05:17.975Z,53.60
2019-03-19T14:11:03.709Z,55.00
2019-03-19T14:13:32.247Z,55.30
2019-03-19T14:16:00.766Z,54.60
2019-03-19T14:18:29.270Z,57.20
2019-03-19T14:20:57.806Z,56.80
2019-03-19T14:23:26.402Z,57.70
2019-03-19T14:25:54.911Z,58.20
2019-03-19T14:28:23.511Z,57.30
2019-03-19T14:30:52.525Z,58.50
2019-03-19T14:33:21.134Z,59.20
2019-03-19T14:35:49.743Z,58.80
2019-03-19T14:38:18.386Z,60.10
2019-03-19T14:40:46.994Z,60.00
2019-03-19T14:43:15.678Z,60.90
2019-03-19T14:45:44.316Z,61.40
2019-03-19T14:48:12.920Z,63.30
2019-03-19T14:50:41.511Z,63.00
2019-03-19T14:53:10.047Z,63.70
2019-03-19T14:55:38.550Z,62.70
2019-03-19T14:58:07.179Z,62.60
2019-03-19T15:00:35.709Z,62.80
2019-03-19T15:03:04.296Z,63.80
2019-03-19T15:05:32.881Z,65.60
2019-03-19T15:08:01.900Z,66.10
2019-03-19T15:10:30.397Z,66.70
2019-03-19T15:12:59.043Z,66.30
2019-03-19T15:15:27.643Z,67.20
2019-03-19T15:17:56.327Z,67.00
2019-03-19T15:20:26.603Z,66.10
2019-03-19T15:22:55.345Z,66.50
2019-03-19T15:25:24.068Z,67.50
2019-03-19T15:27:53.146Z,67.30
2019-03-19T15:30:21.912Z,66.70
2019-03-19T15:32:50.515Z,67.20
2019-03-19T15:35:19.501Z,66.90
2019-03-19T15:37:48.230Z,67.90
2019-03-19T15:40:19.334Z,68.20
2019-03-19T15:42:47.979Z,68.50
2019-03-19T15:48:45.204Z,68.90
2019-03-19T15:51:13.790Z,69.20
2019-03-19T15:53:42.511Z,68.90
2019-03-19T15:56:11.083Z,69.30
2019-03-19T15:58:39.718Z,69.80
2019-03-19T16:01:08.233Z,71.30
2019-03-19T16:03:36.803Z,71.40
2019-03-19T16:09:33.755Z,72.80
2019-03-19T16:12:02.321Z,73.90
2019-03-19T16:14:31.847Z,74.50
2019-03-19T16:17:00.717Z,74.40
2019-03-19T16:19:29.274Z,74.50
2019-03-19T16:21:58.148Z,75.00
2019-03-19T16:27:57.245Z,75.30
2019-03-19T16:34:05.908Z,76.40
2019-03-19T16:36:34.419Z,77.50
2019-03-19T16:39:03.005Z,77.60
2019-03-19T16:41:31.550Z,78.30
2019-03-19T16:44:00.070Z,78.70
2019-03-19T16:50:17.054Z,80.40
2019-03-19T16:52:45.692Z,80.30
2019-03-19T16:58:30.824Z,80.10
2019-03-19T17:00:59.339Z,80.10
2019-03-19T17:07:15.582Z,81.60
2019-03-19T17:09:44.092Z,80.10
2019-03-19T17:12:12.715Z,81.20
2019-03-19T17:14:41.251Z,82.10
2019-03-19T17:17:09.780Z,81.80
2019-03-19T17:19:38.804Z,82.30
2019-03-19T17:22:07.436Z,82.60
2019-03-19T17:24:36.563Z,83.50
2019-03-19T17:27:05.261Z,83.30
2019-03-19T17:29:35.512Z,84.20
2019-03-19T17:32:12.505Z,84.50
2019-03-19T17:34:34.411Z,85.40
2019-03-19T17:37:03.024Z,86.10
2019-03-19T17:39:33.342Z,87.30
2019-03-19T17:42:01.899Z,87.50
2019-03-19T17:44:31.997Z,88.60
2019-03-19T17:47:00.618Z,89.30
2019-03-19T17:52:57.508Z,90.20
2019-03-19T17:55:26.118Z,90.70
2019-03-19T17:57:54.738Z,91.10
2019-03-19T18:00:27.652Z,91.40
2019-03-19T18:06:24.859Z,92.30
2019-03-19T18:08:53.417Z,93.10
2019-03-19T18:11:22.294Z,93.60
2019-03-19T18:17:18.830Z,94.70
2019-03-19T18:19:47.338Z,95.30
2019-03-19T18:22:15.799Z,95.80
2019-03-19T18:24:44.288Z,96.30
2019-03-19T18:27:12.863Z,96.80
2019-03-19T18:29:41.674Z,97.30
2019-03-19T18:32:10.253Z,97.90
2019-03-19T18:34:38.731Z,98.50
2019-03-19T18:37:07.275Z,98.90
2019-03-19T18:43:04.655Z,99.90
2019-03-19T18:45:33.166Z,99.90
2019-03-19T18:48:01.776Z,99.90
2019-03-19T18:53:59.226Z,99.90
2019-03-19T18:56:27.748Z,99.90
2019-03-19T18:58:56.199Z,99.90
2019-03-19T19:01:24.778Z,99.90
2019-03-19T19:03:53.267Z,99.90
2019-03-19T19:06:21.803Z,99.90
2019-03-19T19:08:50.403Z,99.90
2019-03-19T19:11:19.042Z,99.90
2019-03-19T19:17:15.703Z,99.90
2019-03-19T19:19:44.630Z,99.90
2019-03-19T19:25:23.882Z,99.90
2019-03-19T19:31:20.907Z,99.90
2019-03-19T19:33:49.442Z,99.90
2019-03-19T19:36:17.972Z,99.90
2019-03-19T19:38:46.629Z,99.90
2019-03-19T19:41:15.237Z,99.90
2019-03-19T19:43:43.823Z,99.90
2019-03-19T19:46:12.475Z,99.90
2019-03-19T19:48:41.071Z,99.90
2019-03-19T19:51:09.664Z,99.90
2019-03-19T19:53:38.258Z,99.90
2019-03-19T19:56:06.852Z,99.90
2019-03-19T19:58:35.411Z,99.90
2019-03-19T20:04:33.814Z,99.90
2019-03-19T20:07:02.490Z,99.90
2019-03-19T20:09:31.033Z,99.90
2019-03-19T20:11:59.653Z,99.90
2019-03-19T20:14:28.213Z,99.90
2019-03-19T20:16:56.882Z,99.90
2019-03-19T20:19:25.489Z,99.90
2019-03-19T20:21:54.087Z,99.90
2019-03-19T20:24:22.737Z,99.90
2019-03-19T20:26:51.418Z,99.90
2019-03-19T20:32:48.463Z,99.90
2019-03-19T20:38:45.361Z,99.90
2019-03-19T20:41:18.249Z,99.90
2019-03-19T20:43:48.416Z,99.90
2019-03-19T20:46:17.116Z,99.90
2019-03-19T20:48:45.889Z,99.90
2019-03-19T20:51:14.604Z,99.90
2019-03-19T20:53:43.363Z,99.90
2019-03-19T20:56:11.933Z,99.90
2019-03-19T20:58:43.703Z,99.90
2019-03-19T21:01:12.789Z,99.90
2019-03-19T21:03:49.422Z,99.90
2019-03-19T21:06:18.000Z,99.90
2019-03-19T21:08:47.422Z,99.90
2019-03-19T21:14:56.947Z,99.90
2019-03-19T21:17:25.602Z,99.90
2019-03-19T21:19:54.206Z,99.90
2019-03-19T21:22:22.819Z,99.90
2019-03-19T21:24:51.495Z,99.90
2019-03-19T21:30:49.286Z,99.90
2019-03-19T21:33:17.880Z,99.90
2019-03-19T21:35:46.478Z,99.90
2019-03-19T21:38:15.107Z,99.90
2019-03-19T21:40:43.656Z,99.90
2019-03-19T21:43:12.276Z,99.90
2019-03-19T21:49:09.775Z,99.90
2019-03-19T21:51:38.320Z,99.90
2019-03-19T21:54:06.850Z,99.90
2019-03-19T21:56:35.385Z,99.90
2019-03-19T21:59:03.952Z,99.90
2019-03-19T22:01:32.491Z,99.90
2019-03-19T22:04:03.319Z,99.90
2019-03-19T22:06:31.581Z,99.90
2019-03-19T22:09:00.163Z,99.90
2019-03-19T22:11:28.847Z,99.90
2019-03-19T22:13:59.359Z,99.90
2019-03-19T22:16:27.996Z,99.90
2019-03-19T22:18:56.589Z,99.90
2019-03-19T22:21:25.374Z,99.90
2019-03-19T22:23:53.964Z,99.90
2019-03-19T22:26:22.902Z,99.90
2019-03-19T22:28:52.051Z,99.90
2019-03-19T22:34:50.230Z,99.90
2019-03-19T22:37:18.992Z,99.90
2019-03-19T22:39:48.503Z,99.90
2019-03-19T22:42:17.351Z,99.90
2019-03-19T22:44:45.978Z,99.90
2019-03-19T22:47:14.723Z,99.90
2019-03-19T22:49:43.278Z,99.90
2019-03-19T22:52:11.838Z,99.90
2019-03-19T22:54:40.366Z,99.90
2019-03-19T22:57:08.962Z,99.90
2019-03-19T22:59:37.544Z,99.90
2019-03-19T23:02:06.113Z,99.90
2019-03-19T23:04:34.664Z,99.90
2019-03-19T23:07:03.351Z,99.90
2019-03-19T23:09:31.950Z,99.90
2019-03-19T23:12:00.583Z,99.90
2019-03-19T23:14:29.208Z,99.90
2019-03-19T23:16:57.790Z,99.90
2019-03-19T23:19:26.296Z,99.90
2019-03-19T23:21:54.922Z,99.90
2019-03-19T23:24:23.405Z,99.90
2019-03-19T23:26:52.025Z,99.90
2019-03-19T23:29:20.597Z,99.90
2019-03-19T23:31:49.180Z,99.90
2019-03-19T23:34:17.702Z,99.90
2019-03-19T23:36:46.207Z,99.90
2019-03-19T23:39:14.847Z,99.90
2019-03-19T23:41:43.348Z,99.90
2019-03-19T23:47:41.062Z,99.90
2019-03-19T23:50:14.050Z,99.90
2019-03-19T23:52:42.645Z,99.90
2019-03-19T23:55:11.229Z,99.90
2019-03-19T23:57:39.744Z,99.90
